METAR Data
IDs: Format: Raw Decoded Include TAF

Data at: 1843 UTC 16 Oct 2021

KEAT 161755Z AUTO 00000KT 10SM CLR 11/05 A3006 RMK AO2 SLP182 T01110050 10111 20044 58006